

Wyoming Mesonet
Water Resources Data System and State Climate Office
SEO WACNet, UW USACE UMRB, USDA-ARS, BLM
| Wind | Soil | |||||||||||||||||||
| Temp | Precip | Speed | Dir | Gust | Dir | Humidity | Pressure | Solar | Snow | Temperature (Deg F) | Moisture (%) | |||||||||
| Date Time (MST) | (F) | (in) | (mph) | (deg) | (mph) | (deg) | (%) | (Mbars) | (w/m^2) | (in) | 5cm | 10cm | 20cm | 50cm | 1m | 5cm | 10cm | 20cm | 50cm | 1m |
| 2026-08-30 00:00:00 | 64.42 | 0.00 | 4.81 | 274 | 9.57 | 242 | 58.5 | 858.0 | 0.0 | -0.4 | 75.38 | 80.06 | 80.06 | 75.56 | 71.60 | 46.4% | 17.3% | 20.4% | 20.2% | 25.4% |
| 2026-08-30 01:00:00 | 64.81 | 0.00 | 2.04 | 350 | 8.82 | 303 | 58.9 | 858.0 | 0.0 | -0.3 | 74.30 | 79.16 | 79.88 | 75.56 | 71.60 | 46.5% | 17.2% | 20.3% | 20.2% | 25.5% |
| 2026-08-30 02:00:00 | 60.19 | 0.00 | 4.61 | 93 | 6.58 | 104 | 72.2 | 858.0 | 0.0 | -0.3 | 73.22 | 78.44 | 79.52 | 75.56 | 71.60 | 36.1% | 17.2% | 20.3% | 20.2% | 25.4% |
| 2026-08-30 03:00:00 | 60.13 | 0.00 | 7.10 | 84 | 9.32 | 79 | 71.7 | 858.0 | 0.0 | -0.3 | 72.32 | 77.54 | 79.34 | 75.74 | 71.60 | 12.1% | 17.1% | 20.2% | 20.2% | 25.5% |
| 2026-08-30 04:00:00 | 59.36 | 0.00 | 4.20 | 100 | 8.45 | 96 | 73.9 | 858.0 | 0.0 | -0.4 | 71.60 | 76.82 | 78.80 | 75.74 | 71.60 | 10.7% | 17.1% | 20.2% | 20.2% | 25.5% |
| 2026-08-30 05:00:00 | 58.93 | 0.00 | 4.67 | 39 | 5.96 | 1 | 72.6 | 859.0 | 0.0 | -0.4 | 70.88 | 76.10 | 78.44 | 75.74 | 71.60 | 10.4% | 17.0% | 20.1% | 20.2% | 25.5% |
| 2026-08-30 06:00:00 | 60.57 | 0.00 | 4.01 | 0 | 7.33 | 1 | 68.6 | 859.0 | 22.2 | -0.4 | 70.16 | 75.38 | 78.08 | 75.74 | 71.60 | 10.5% | 16.9% | 20.1% | 20.2% | 25.5% |
| 2026-08-30 07:00:00 | 64.08 | 0.00 | 4.82 | 85 | 7.08 | 110 | 65.5 | 859.0 | 356.8 | -0.2 | 69.62 | 74.84 | 77.90 | 75.74 | 71.60 | 10.3% | 16.9% | 20.1% | 20.2% | 25.5% |
| 2026-08-30 08:00:00 | 69.24 | 0.00 | 5.80 | 332 | 9.57 | 0 | 54.3 | 859.0 | 456.5 | -0.1 | 70.16 | 74.30 | 77.36 | 75.74 | 71.60 | 10.4% | 16.9% | 20.0% | 20.1% | 25.4% |
| 2026-08-30 09:00:00 | 72.21 | 0.00 | 6.77 | 0 | 10.68 | 0 | 46.0 | 859.0 | 661.5 | -0.1 | 71.96 | 73.94 | 77.18 | 75.74 | 71.60 | 10.5% | 16.8% | 20.0% | 20.2% | 25.5% |
| 2026-08-30 10:00:00 | 75.06 | 0.00 | 9.51 | 313 | 14.66 | 0 | 42.3 | 859.0 | 773.3 | -0.1 | 74.84 | 74.30 | 76.82 | 75.74 | 71.60 | 12.3% | 17.0% | 20.0% | 20.2% | 25.5% |
| 2026-08-30 11:00:00 | 80.51 | 0.00 | 10.94 | 264 | 16.27 | 214 | 37.0 | 859.0 | 845.0 | 0.0 | 77.90 | 75.02 | 76.46 | 75.74 | 71.60 | 46.1% | 16.9% | 20.0% | 20.2% | 25.5% |
| 2026-08-30 12:00:00 | 80.73 | 0.00 | 10.93 | 341 | 20.62 | 230 | 28.9 | 858.0 | 1022.0 | 0.0 | 81.86 | 76.10 | 76.46 | 75.74 | 71.60 | 46.0% | 16.9% | 20.0% | 20.2% | 25.5% |
| 2026-08-30 13:00:00 | 86.16 | 0.00 | 16.14 | 275 | 26.96 | 255 | 21.3 | 858.0 | 667.0 | -0.2 | 84.56 | 77.54 | 76.46 | 75.74 | 71.60 | 45.8% | 17.2% | 20.0% | 20.2% | 25.5% |
| 2026-08-30 14:00:00 | 83.75 | 0.00 | 18.23 | 274 | 28.57 | 289 | 21.9 | 858.0 | 217.9 | -0.3 | 85.46 | 78.80 | 76.64 | 75.74 | 71.60 | 45.6% | 17.3% | 20.0% | 20.2% | 25.4% |
| 2026-08-30 15:00:00 | 77.27 | 0.00 | 25.03 | 322 | 39.50 | 286 | 33.2 | 858.0 | 292.7 | -0.4 | 85.10 | 79.88 | 76.82 | 75.56 | 71.60 | 45.5% | 17.3% | 20.0% | 20.2% | 25.5% |
| 2026-08-30 16:00:00 | 71.87 | 0.00 | 13.96 | 16 | 35.90 | 343 | 50.2 | 859.0 | 312.3 | -0.1 | 84.02 | 80.60 | 77.18 | 75.38 | 71.60 | 45.4% | 17.3% | 20.0% | 20.2% | 25.5% |
| 2026-08-30 17:00:00 | 70.90 | 0.00 | 15.18 | 11 | 20.87 | 324 | 47.6 | 859.0 | 306.7 | -0.2 | 82.94 | 80.78 | 77.36 | 75.56 | 71.60 | 45.4% | 17.4% | 20.0% | 20.1% | 25.5% |
| 2026-08-30 18:00:00 | 68.76 | 0.00 | 11.12 | 52 | 18.39 | 10 | 48.5 | 859.0 | 106.2 | -0.3 | 81.68 | 80.78 | 77.72 | 75.38 | 71.60 | 23.5% | 17.4% | 20.1% | 20.2% | 25.5% |
| 2026-08-30 19:00:00 | 64.80 | 0.00 | 7.88 | 45 | 14.16 | 52 | 51.9 | 859.0 | 0.0 | -0.4 | 79.88 | 80.42 | 77.90 | 75.38 | 71.60 | 11.3% | 17.3% | 20.1% | 20.2% | 25.4% |
| 2026-08-30 20:00:00 | 63.10 | 0.00 | 8.31 | 53 | 10.31 | 51 | 54.0 | 860.0 | 0.0 | -0.4 | 77.72 | 79.88 | 78.08 | 75.38 | 71.60 | 9.9% | 17.2% | 20.1% | 20.1% | 25.5% |
| 2026-08-30 21:00:00 | 62.83 | 0.00 | 10.01 | 49 | 12.92 | 53 | 55.0 | 861.0 | 0.0 | -0.3 | 75.92 | 79.16 | 78.08 | 75.20 | 71.60 | 9.6% | 17.3% | 20.1% | 20.2% | 25.4% |
| 2026-08-30 22:00:00 | 61.61 | 0.00 | 7.99 | 73 | 18.50 | 74 | 50.2 | 861.0 | 0.0 | -0.4 | 74.48 | 78.26 | 78.08 | 75.20 | 71.78 | 9.5% | 17.2% | 20.1% | 20.1% | 25.5% |
| 2026-08-30 23:00:00 | 60.24 | 0.00 | 5.71 | 65 | 9.81 | 63 | 51.8 | 861.0 | 0.0 | -0.5 | 73.22 | 77.54 | 77.90 | 75.20 | 71.60 | 9.3% | 17.0% | 20.1% | 20.2% | 25.5% |